Lumberton Township, New Jersey
Current Conditions -  °F | °C
As of 5:54 AM on Sunday 23 Nov 2014 (Local Time) from KVAY Reporting Station
Overcast Overcast  
Wind Chill: 41°   Ceiling: 10000
Heat Index: 41°   Visibility: 10mi
Dew Point: 23°   Wind: 0mph
Humidity: 49%   Direction: NA
Pressure: 30.22"   Gusts: NA
Location:  39.9559°N, 74.8135°W
Report Text: KVAY 231054Z AUTO 00000KT 10SM OVC100 05/M05 A3022 RMK AO2 SLP234 T00501050
Loading
Personal Weather Stations






























Interactive Weather Map New forecast layout! Learn more

10-Day Weather Forecast

Advertisements
Track Severe Weather on mobile